Time;durP1;ratioP1;P1;durP2;ratioP2;P2;SDS_P1;SDS_P2;PMS_P1;PMS_P2;Temp;Humidity;BMP_temperature;BMP_pressure;BME280_temperature;BME280_humidity;BME280_pressure;Samples;Min_cycle;Max_cycle;Signal;HPM_P1;HPM_P2
2021/07/09 00:01:53;;;;;;;5.30;3.03;;;22.40;69.70;;;;;;10422252;28;20041;-46
2021/07/09 00:06:57;;;;;;;5.72;3.28;;;22.30;69.70;;;;;;10421366;28;20108;-46
2021/07/09 00:11:58;;;;;;;3.42;2.97;;;22.30;69.70;;;;;;10421162;28;20025;-48
2021/07/09 00:16:58;;;;;;;3.88;3.15;;;22.30;69.70;;;;;;10421701;28;20025;-46
2021/07/09 00:22:00;;;;;;;3.28;2.97;;;22.30;69.70;;;;;;10429705;28;20111;-46
2021/07/09 00:27:03;;;;;;;3.92;3.33;;;22.30;69.80;;;;;;10420715;28;20101;-45
2021/07/09 00:32:05;;;;;;;3.60;3.30;;;22.30;69.70;;;;;;10420671;28;20109;-47
2021/07/09 00:37:05;;;;;;;3.35;2.90;;;22.30;69.70;;;;;;10420490;28;20031;-46
2021/07/09 00:42:06;;;;;;;3.40;3.00;;;22.30;69.70;;;;;;10419254;28;20133;-47
2021/07/09 00:47:07;;;;;;;3.42;3.13;;;22.30;69.70;;;;;;10417439;28;20113;-46
2021/07/09 00:52:07;;;;;;;3.92;3.33;;;22.30;69.70;;;;;;10417357;28;20032;-46
2021/07/09 00:57:10;;;;;;;3.65;2.97;;;22.30;69.70;;;;;;10416589;28;20037;-47
2021/07/09 01:02:10;;;;;;;3.85;3.00;;;22.30;69.70;;;;;;10415826;28;20473;-46
2021/07/09 01:07:11;;;;;;;4.15;3.63;;;22.30;69.70;;;;;;10416580;28;20108;-46
2021/07/09 01:12:12;;;;;;;3.90;3.38;;;22.30;69.70;;;;;;10417239;28;20021;-49
2021/07/09 01:17:15;;;;;;;5.03;3.72;;;22.30;69.70;;;;;;10416498;28;20044;-46
2021/07/09 01:22:17;;;;;;;4.20;3.13;;;22.30;69.60;;;;;;10423960;28;20027;-49
2021/07/09 01:27:18;;;;;;;4.47;3.50;;;22.30;69.60;;;;;;10415939;28;20037;-47
2021/07/09 01:32:19;;;;;;;4.10;3.42;;;22.30;69.60;;;;;;10414893;28;20029;-47
2021/07/09 01:37:19;;;;;;;5.50;3.65;;;22.30;69.60;;;;;;10414657;28;20108;-45
2021/07/09 01:42:20;;;;;;;3.80;3.10;;;22.20;69.60;;;;;;10380783;28;1024812;-47
2021/07/09 01:47:21;;;;;;;3.58;2.90;;;22.30;69.60;;;;;;10417402;28;20299;-47
2021/07/09 01:52:23;;;;;;;4.57;2.80;;;22.30;69.60;;;;;;10403804;28;20033;-48
2021/07/09 01:57:24;;;;;;;4.93;3.53;;;22.20;69.50;;;;;;10417045;28;20048;-46
2021/07/09 02:02:25;;;;;;;5.22;3.50;;;22.20;69.50;;;;;;10416924;28;20442;-46
2021/07/09 02:07:26;;;;;;;4.82;3.38;;;22.20;69.50;;;;;;10415933;28;20037;-47
2021/07/09 02:12:28;;;;;;;3.40;2.88;;;22.20;69.50;;;;;;10416532;28;20033;-46
2021/07/09 02:17:28;;;;;;;4.03;3.63;;;22.20;69.50;;;;;;10417474;28;20037;-47
2021/07/09 02:22:29;;;;;;;4.20;3.08;;;22.20;69.50;;;;;;10421733;28;20057;-46
2021/07/09 02:27:30;;;;;;;4.20;3.15;;;22.20;69.50;;;;;;10414689;28;20108;-46
2021/07/09 02:32:31;;;;;;;3.97;3.08;;;22.20;69.50;;;;;;10415691;28;20034;-47
2021/07/09 02:37:31;;;;;;;4.97;3.13;;;22.20;69.50;;;;;;10415664;28;20083;-45
2021/07/09 02:42:32;;;;;;;3.17;2.88;;;22.20;69.50;;;;;;10415234;28;20045;-45
2021/07/09 02:47:33;;;;;;;3.88;2.97;;;22.20;69.50;;;;;;10415045;28;20108;-46
2021/07/09 02:52:34;;;;;;;4.38;3.97;;;22.20;69.50;;;;;;10414862;28;20497;-46
2021/07/09 02:57:36;;;;;;;3.90;3.33;;;22.20;69.50;;;;;;10414765;28;20424;-45
2021/07/09 03:02:37;;;;;;;4.22;2.90;;;22.20;69.50;;;;;;10405190;28;20596;-46
2021/07/09 03:07:38;;;;;;;3.28;2.88;;;22.20;69.50;;;;;;10414708;28;20029;-46
2021/07/09 03:12:40;;;;;;;3.85;3.33;;;22.20;69.50;;;;;;10414410;28;20108;-46
2021/07/09 03:17:41;;;;;;;3.70;3.17;;;22.10;69.40;;;;;;10414045;28;20043;-48
2021/07/09 03:22:42;;;;;;;3.38;3.00;;;22.20;69.50;;;;;;10410557;28;20109;-47
2021/07/09 03:27:42;;;;;;;3.13;2.80;;;22.10;69.40;;;;;;10406643;28;20037;-46
2021/07/09 03:32:43;;;;;;;3.55;3.03;;;22.10;69.40;;;;;;10411506;28;20055;-46
2021/07/09 03:37:43;;;;;;;4.28;3.00;;;22.10;69.40;;;;;;10414253;28;20510;-47
2021/07/09 03:42:44;;;;;;;3.88;3.10;;;22.10;69.50;;;;;;10412695;28;20406;-46
2021/07/09 03:47:46;;;;;;;4.85;2.80;;;22.10;69.50;;;;;;10413844;28;20515;-46
2021/07/09 03:52:47;;;;;;;3.75;3.15;;;22.10;69.40;;;;;;10412529;28;20113;-46
2021/07/09 03:57:47;;;;;;;3.50;2.97;;;22.10;69.40;;;;;;10413683;28;20029;-46
2021/07/09 04:02:48;;;;;;;3.38;2.95;;;22.10;69.40;;;;;;10413576;28;20033;-46
2021/07/09 04:07:49;;;;;;;4.10;3.28;;;22.10;69.40;;;;;;10413675;28;20025;-46
2021/07/09 04:12:49;;;;;;;3.67;3.13;;;22.10;69.40;;;;;;10413521;28;20107;-46
2021/07/09 04:17:50;;;;;;;4.63;3.60;;;22.10;69.50;;;;;;10412098;28;20053;-47
2021/07/09 04:22:56;;;;;;;4.60;2.92;;;22.10;69.40;;;;;;10421593;28;20112;-48
2021/07/09 04:27:56;;;;;;;3.35;3.03;;;22.10;69.50;;;;;;10412031;28;20449;-48
2021/07/09 04:32:57;;;;;;;4.63;3.78;;;22.10;69.50;;;;;;10418696;28;20040;-52
2021/07/09 04:37:58;;;;;;;3.60;3.25;;;22.10;69.50;;;;;;10419859;28;20037;-46
2021/07/09 04:42:58;;;;;;;3.40;3.10;;;22.10;69.50;;;;;;10420018;28;20676;-46
2021/07/09 04:47:59;;;;;;;5.75;3.47;;;22.10;69.40;;;;;;10419030;28;20060;-46
2021/07/09 04:53:00;;;;;;;7.20;4.30;;;22.00;69.40;;;;;;10419252;28;20108;-49
2021/07/09 04:58:01;;;;;;;8.10;3.80;;;22.10;70.20;;;;;;10419962;28;20033;-46
2021/07/09 05:03:01;;;;;;;6.55;3.88;;;22.10;70.70;;;;;;10419644;28;20104;-47
2021/07/09 05:08:03;;;;;;;5.50;4.00;;;22.20;71.10;;;;;;10419427;28;20533;-50
2021/07/09 05:13:08;;;;;;;11.95;5.03;;;22.20;71.20;;;;;;10419215;28;20056;-45
2021/07/09 05:18:08;;;;;;;12.32;4.60;;;22.20;71.20;;;;;;10404792;28;20025;-47
2021/07/09 05:23:09;;;;;;;8.68;4.70;;;22.20;72.30;;;;;;10425387;28;20038;-45
2021/07/09 05:28:10;;;;;;;13.30;4.68;;;22.20;71.90;;;;;;10418496;28;20058;-48
2021/07/09 05:33:10;;;;;;;16.88;5.40;;;22.10;71.40;;;;;;10404873;28;20160;-46
2021/07/09 05:38:11;;;;;;;16.50;5.65;;;22.10;71.10;;;;;;10400231;28;20037;-48
2021/07/09 05:43:12;;;;;;;42.50;6.82;;;22.10;71.00;;;;;;10406363;28;20049;-51
2021/07/09 05:48:13;;;;;;;20.02;6.25;;;22.10;70.90;;;;;;10414933;28;20049;-48
2021/07/09 05:53:14;;;;;;;29.33;7.55;;;22.10;70.90;;;;;;10416168;28;20037;-45
2021/07/09 05:58:15;;;;;;;27.13;6.90;;;22.10;70.80;;;;;;10417345;28;20029;-47
2021/07/09 06:03:16;;;;;;;29.73;6.80;;;22.20;71.10;;;;;;10415520;28;20069;-47
2021/07/09 06:08:17;;;;;;;23.33;7.75;;;22.20;71.20;;;;;;10416644;28;20464;-47
2021/07/09 06:13:18;;;;;;;33.10;8.15;;;22.20;71.40;;;;;;10416950;28;20044;-44
2021/07/09 06:18:19;;;;;;;23.50;8.05;;;22.20;71.10;;;;;;10416355;28;20440;-43
2021/07/09 06:23:20;;;;;;;25.33;8.15;;;22.20;71.00;;;;;;10422073;28;20037;-43
2021/07/09 06:28:22;;;;;;;21.10;7.80;;;22.10;70.90;;;;;;10414562;28;20128;-50
2021/07/09 06:33:22;;;;;;;26.02;8.43;;;22.10;70.70;;;;;;10415590;28;20034;-49
2021/07/09 06:38:23;;;;;;;16.63;7.25;;;22.20;70.90;;;;;;10407750;28;20040;-47
2021/07/09 06:43:24;;;;;;;24.88;7.18;;;22.20;70.90;;;;;;10415657;28;20049;-47
2021/07/09 06:48:24;;;;;;;17.60;6.47;;;22.20;71.10;;;;;;10415713;28;20113;-47
2021/07/09 06:53:25;;;;;;;17.60;6.85;;;22.20;71.60;;;;;;10414758;28;20109;-45
2021/07/09 06:58:26;;;;;;;18.95;7.72;;;22.20;70.90;;;;;;10415015;28;20025;-46
2021/07/09 07:03:26;;;;;;;17.50;6.63;;;22.20;71.00;;;;;;10414750;28;20167;-48
2021/07/09 07:08:27;;;;;;;18.60;5.95;;;22.20;71.20;;;;;;10414399;28;20121;-45
2021/07/09 07:13:28;;;;;;;14.05;6.07;;;22.20;71.30;;;;;;10413713;28;20033;-48
2021/07/09 07:18:29;;;;;;;19.23;7.45;;;22.20;71.10;;;;;;10413948;28;20056;-45
2021/07/09 07:23:29;;;;;;;19.83;6.35;;;22.30;71.70;;;;;;10421051;28;20086;-43
2021/07/09 07:28:30;;;;;;;17.27;6.20;;;22.30;71.10;;;;;;10414143;28;20025;-47
2021/07/09 07:33:31;;;;;;;13.30;5.80;;;22.30;70.80;;;;;;10413099;28;20034;-43
2021/07/09 07:38:31;;;;;;;15.88;6.85;;;22.30;70.60;;;;;;10414160;28;20087;-46
2021/07/09 07:43:32;;;;;;;12.60;5.57;;;22.20;70.60;;;;;;10413587;28;20041;-46
2021/07/09 07:48:33;;;;;;;10.00;5.55;;;22.30;70.60;;;;;;10413713;28;20040;-45
2021/07/09 07:53:36;;;;;;;14.73;6.75;;;22.20;70.50;;;;;;10413685;28;20124;-46
2021/07/09 07:58:37;;;;;;;11.60;5.22;;;22.30;70.50;;;;;;10414164;28;20088;-45
2021/07/09 08:03:38;;;;;;;11.73;5.72;;;22.20;70.50;;;;;;10413530;28;20482;-48
2021/07/09 08:08:38;;;;;;;10.50;4.90;;;22.30;70.50;;;;;;10421437;28;20030;-43
2021/07/09 08:13:39;;;;;;;11.77;6.60;;;22.30;70.40;;;;;;10421185;28;20084;-47
2021/07/09 08:18:40;;;;;;;9.05;5.15;;;22.30;70.50;;;;;;10420942;28;20078;-43
2021/07/09 08:23:41;;;;;;;9.63;4.82;;;22.30;70.40;;;;;;10429279;28;20117;-43
2021/07/09 08:28:41;;;;;;;8.63;4.43;;;22.30;70.30;;;;;;10420636;28;20022;-42
2021/07/09 08:33:42;;;;;;;9.02;5.07;;;22.20;70.30;;;;;;10420413;28;20076;-43
2021/07/09 08:38:42;;;;;;;5.93;4.38;;;22.30;70.30;;;;;;10420270;28;20120;-47
2021/07/09 08:43:44;;;;;;;9.88;5.45;;;22.30;70.30;;;;;;10419916;28;20049;-43
2021/07/09 08:48:44;;;;;;;6.70;4.95;;;22.30;70.30;;;;;;10420183;28;20112;-48
2021/07/09 08:53:45;;;;;;;7.93;5.85;;;22.30;70.30;;;;;;10420239;28;20120;-46
2021/07/09 08:58:46;;;;;;;9.95;5.78;;;22.30;70.20;;;;;;10419251;28;20026;-45
2021/07/09 09:03:50;;;;;;;11.77;5.97;;;22.40;74.50;;;;;;10418965;28;20028;-44
2021/07/09 09:08:51;;;;;;;13.40;6.38;;;22.40;73.00;;;;;;10418339;28;20021;-42
2021/07/09 09:13:51;;;;;;;9.95;5.40;;;22.50;74.00;;;;;;10418303;28;20486;-44
2021/07/09 09:18:58;;;;;;;8.15;5.00;;;22.50;71.80;;;;;;10418502;28;20114;-44
2021/07/09 09:23:59;;;;;;;8.40;4.82;;;22.50;71.40;;;;;;10425785;28;20033;-46
2021/07/09 09:29:00;;;;;;;7.63;5.03;;;22.40;71.30;;;;;;10418211;28;20025;-44
2021/07/09 09:34:05;;;;;;;8.95;4.82;;;22.40;71.20;;;;;;10417932;28;20057;-43
2021/07/09 09:39:18;;;;;;;9.73;4.78;;;22.40;71.20;;;;;;10418003;28;20037;-42
2021/07/09 09:44:19;;;;;;;11.70;5.35;;;22.40;71.10;;;;;;10417743;28;20132;-46
2021/07/09 09:49:30;;;;;;;10.88;5.53;;;22.50;71.70;;;;;;10416889;28;20025;-42
2021/07/09 09:54:34;;;;;;;8.85;5.07;;;22.50;71.80;;;;;;10417284;28;20109;-43
2021/07/09 09:59:41;;;;;;;13.77;5.85;;;22.50;72.10;;;;;;10417068;28;20064;-48
2021/07/09 10:04:41;;;;;;;8.85;4.95;;;22.50;72.00;;;;;;10415231;28;20355;-44
2021/07/09 10:09:43;;;;;;;12.63;5.40;;;22.50;72.00;;;;;;10416379;28;20037;-43
2021/07/09 10:14:46;;;;;;;12.32;5.47;;;22.60;71.90;;;;;;10415459;28;20402;-43
2021/07/09 10:19:49;;;;;;;11.48;5.78;;;22.50;71.90;;;;;;10422239;28;20040;-43
2021/07/09 10:24:54;;;;;;;8.63;6.07;;;22.60;71.60;;;;;;10404919;28;20025;-43
2021/07/09 10:30:00;;;;;;;8.23;6.32;;;22.50;71.30;;;;;;10415112;28;20030;-44
2021/07/09 10:35:03;;;;;;;8.07;5.38;;;22.60;71.30;;;;;;10415667;28;20489;-43
2021/07/09 10:40:11;;;;;;;9.73;5.90;;;22.50;71.30;;;;;;10415558;28;20071;-43
2021/07/09 10:45:25;;;;;;;10.25;7.35;;;22.50;71.10;;;;;;10415133;28;20041;-43
2021/07/09 10:50:26;;;;;;;11.20;5.40;;;22.50;71.10;;;;;;10414991;28;20164;-45
2021/07/09 10:55:26;;;;;;;8.13;5.60;;;22.60;71.10;;;;;;10415063;28;20101;-44
2021/07/09 11:00:29;;;;;;;5.90;5.00;;;22.60;71.00;;;;;;10414778;28;20108;-45
2021/07/09 11:05:42;;;;;;;8.18;5.95;;;22.60;70.90;;;;;;10414796;28;20060;-44
2021/07/09 11:11:07;;;;;;;11.40;6.20;;;22.60;70.70;;;;;;10413881;28;20041;-43
2021/07/09 11:16:28;;;;;;;8.93;7.07;;;22.60;70.70;;;;;;10414757;28;20109;-43
2021/07/09 11:21:34;;;;;;;8.45;6.55;;;22.60;70.70;;;;;;10414037;28;20548;-43
2021/07/09 11:27:09;;;;;;;8.10;5.65;;;22.60;70.70;;;;;;10399324;28;20038;-45
2021/07/09 11:32:20;;;;;;;7.68;6.43;;;22.60;70.60;;;;;;10386898;28;20043;-47
2021/07/09 11:37:30;;;;;;;13.60;6.65;;;22.70;70.80;;;;;;10413148;28;20025;-44
2021/07/09 11:42:33;;;;;;;16.02;6.82;;;22.60;70.70;;;;;;10421741;28;20045;-47
2021/07/09 11:47:40;;;;;;;16.67;6.63;;;22.70;70.90;;;;;;10422233;28;20033;-46
2021/07/09 11:52:44;;;;;;;11.43;6.65;;;22.70;70.90;;;;;;10421885;28;20390;-45
2021/07/09 11:57:45;;;;;;;12.15;6.82;;;22.80;70.80;;;;;;10421688;28;20128;-44
2021/07/09 12:02:49;;;;;;;10.70;5.93;;;22.80;70.70;;;;;;10421706;28;20025;-44
2021/07/09 12:07:55;;;;;;;10.27;5.78;;;22.80;70.70;;;;;;10421397;28;20492;-44
2021/07/09 12:13:06;;;;;;;16.90;7.40;;;22.80;70.60;;;;;;10422027;28;20036;-45
2021/07/09 12:18:09;;;;;;;13.52;6.47;;;22.80;70.60;;;;;;10414712;28;20029;-47
2021/07/09 12:23:13;;;;;;;15.48;7.10;;;22.80;71.30;;;;;;10421939;28;20033;-49
2021/07/09 12:28:23;;;;;;;13.73;7.03;;;22.90;71.00;;;;;;10420014;28;20072;-49
2021/07/09 12:33:28;;;;;;;24.05;6.95;;;23.00;71.10;;;;;;10420888;28;20417;-44
2021/07/09 12:38:33;;;;;;;13.73;7.18;;;22.90;70.90;;;;;;10420399;28;20397;-48
2021/07/09 12:43:45;;;;;;;28.85;8.02;;;23.00;71.30;;;;;;10419810;28;20061;-45
2021/07/09 12:48:55;;;;;;;19.63;6.43;;;23.00;71.50;;;;;;10419917;28;20041;-47
2021/07/09 12:54:04;;;;;;;16.65;8.07;;;23.00;71.20;;;;;;10419165;28;20025;-44
2021/07/09 12:59:07;;;;;;;;;;;23.00;70.90;;;;;;10420161;28;20037;-45
2021/07/09 13:04:21;;;;;;;15.30;6.68;;;23.00;70.80;;;;;;10419160;28;19913;-47
2021/07/09 13:09:22;;;;;;;13.50;7.32;;;23.00;70.60;;;;;;10418727;28;20034;-50
2021/07/09 13:14:29;;;;;;;16.02;7.57;;;23.00;70.30;;;;;;10418053;28;20509;-48
2021/07/09 13:19:36;;;;;;;13.70;6.88;;;23.00;70.30;;;;;;10421121;28;20028;-46
2021/07/09 13:24:39;;;;;;;16.10;9.23;;;23.00;70.20;;;;;;10421287;28;20037;-48
2021/07/09 13:29:40;;;;;;;13.02;6.45;;;23.00;70.20;;;;;;10418246;28;20045;-49
2021/07/09 13:34:42;;;;;;;11.52;6.63;;;23.00;70.10;;;;;;10417662;28;20030;-51
2021/07/09 13:39:43;;;;;;;12.70;7.93;;;23.00;70.00;;;;;;10417484;28;20041;-48
2021/07/09 13:44:43;;;;;;;9.65;6.82;;;22.90;69.90;;;;;;10417738;28;20431;-48
2021/07/09 13:49:44;;;;;;;12.32;7.30;;;23.00;69.90;;;;;;10417648;28;20057;-48
2021/07/09 13:54:45;;;;;;;8.30;6.45;;;22.90;69.80;;;;;;10410285;28;20053;-48
2021/07/09 13:59:46;;;;;;;11.35;7.45;;;22.90;69.90;;;;;;10416061;28;20029;-50
2021/07/09 14:04:48;;;;;;;17.73;7.90;;;22.90;69.90;;;;;;10415368;28;20125;-48
2021/07/09 14:09:48;;;;;;;15.35;7.88;;;22.90;70.10;;;;;;10413155;28;20104;-46
2021/07/09 14:14:49;;;;;;;16.83;7.80;;;23.00;70.40;;;;;;10412573;28;20370;-47
2021/07/09 14:19:50;;;;;;;19.67;8.23;;;23.00;70.60;;;;;;10408419;28;20129;-47
2021/07/09 14:24:51;;;;;;;12.70;8.40;;;23.00;70.70;;;;;;10408730;28;20060;-46
2021/07/09 14:29:51;;;;;;;9.85;7.55;;;23.00;70.90;;;;;;10408211;28;20367;-47
2021/07/09 14:34:52;;;;;;;12.25;7.75;;;23.00;71.20;;;;;;10405489;28;20091;-49
2021/07/09 14:39:54;;;;;;;16.02;7.82;;;23.10;71.40;;;;;;10414403;28;20091;-47
2021/07/09 14:44:55;;;;;;;12.55;7.43;;;23.10;71.30;;;;;;10410666;28;20041;-48
2021/07/09 14:49:55;;;;;;;12.18;8.02;;;23.10;71.30;;;;;;10414011;28;20036;-48
2021/07/09 14:54:56;;;;;;;12.18;7.68;;;23.10;71.30;;;;;;10413737;28;20496;-46
2021/07/09 14:59:57;;;;;;;16.05;7.82;;;23.10;71.20;;;;;;10413911;28;20057;-45
2021/07/09 15:04:58;;;;;;;44.30;10.63;;;23.10;71.50;;;;;;10413807;28;20033;-49
2021/07/09 15:09:59;;;;;;;25.33;11.02;;;23.10;72.70;;;;;;10412736;28;20056;-45
2021/07/09 15:14:59;;;;;;;29.55;10.98;;;23.10;72.20;;;;;;10414298;28;20173;-44
2021/07/09 15:20:00;;;;;;;21.27;9.55;;;23.20;72.30;;;;;;10417605;28;20041;-46
2021/07/09 15:25:02;;;;;;;21.48;9.80;;;23.20;72.20;;;;;;10412302;28;20029;-48
2021/07/09 15:30:10;;;;;;;27.60;11.52;;;23.20;72.20;;;;;;10410177;28;20057;-46
2021/07/09 15:35:11;;;;;;;36.55;11.82;;;23.20;72.40;;;;;;10413030;28;20022;-49
2021/07/09 15:40:13;;;;;;;35.72;12.60;;;23.20;72.30;;;;;;10416855;28;20120;-43
2021/07/09 15:45:14;;;;;;;37.00;12.43;;;23.30;72.10;;;;;;10412171;28;20061;-44
2021/07/09 15:50:16;;;;;;;47.90;22.30;;;23.30;71.80;;;;;;10412877;28;20105;-47
2021/07/09 15:55:17;;;;;;;27.15;15.27;;;23.30;73.10;;;;;;10413511;28;20026;-45
2021/07/09 16:00:18;;;;;;;29.92;18.88;;;23.30;71.60;;;;;;10412941;28;20500;-49
2021/07/09 16:05:19;;;;;;;34.95;24.10;;;23.30;70.20;;;;;;10413700;28;20029;-43
2021/07/09 16:10:20;;;;;;;28.17;21.73;;;23.30;69.90;;;;;;10413610;28;20033;-48
2021/07/09 16:15:21;;;;;;;30.98;23.75;;;23.30;70.30;;;;;;10413637;28;20104;-47
2021/07/09 16:20:22;;;;;;;27.25;18.70;;;23.30;70.20;;;;;;10420952;28;20029;-45
2021/07/09 16:25:23;;;;;;;23.60;18.80;;;23.30;70.30;;;;;;10414610;28;20040;-45
2021/07/09 16:30:24;;;;;;;24.10;17.48;;;23.20;70.30;;;;;;10413650;28;20031;-44
2021/07/09 16:35:25;;;;;;;19.92;16.73;;;23.20;70.30;;;;;;10420944;28;20105;-44
2021/07/09 16:40:28;;;;;;;24.73;15.88;;;23.20;70.30;;;;;;10420591;28;20468;-46
2021/07/09 16:45:30;;;;;;;23.48;15.65;;;23.10;70.20;;;;;;10420713;28;20810;-45
2021/07/09 16:50:30;;;;;;;23.95;16.95;;;23.10;70.30;;;;;;10420152;28;20440;-49
2021/07/09 16:55:31;;;;;;;24.05;16.50;;;23.10;70.60;;;;;;10419006;28;20029;-44
2021/07/09 17:00:32;;;;;;;22.25;17.08;;;23.10;70.20;;;;;;10418875;28;20037;-51
2021/07/09 17:05:33;;;;;;;19.15;14.65;;;23.10;70.20;;;;;;10417144;28;20029;-46
2021/07/09 17:10:34;;;;;;;18.33;15.18;;;23.20;70.50;;;;;;10417143;28;20022;-47
2021/07/09 17:15:34;;;;;;;18.45;13.77;;;23.20;70.50;;;;;;10416798;28;20030;-44
2021/07/09 17:20:35;;;;;;;16.15;13.40;;;23.20;70.40;;;;;;10416596;28;20404;-45
2021/07/09 17:25:37;;;;;;;14.85;13.20;;;23.10;70.30;;;;;;10415370;28;20029;-48
2021/07/09 17:30:38;;;;;;;14.98;12.90;;;23.10;70.10;;;;;;10415031;28;20025;-50
2021/07/09 17:35:39;;;;;;;19.00;12.73;;;23.10;70.10;;;;;;10415989;28;20116;-44
2021/07/09 17:40:41;;;;;;;16.55;13.60;;;23.10;70.20;;;;;;10415973;28;20465;-47
2021/07/09 17:45:42;;;;;;;18.83;13.18;;;23.10;70.10;;;;;;10415741;28;20025;-45
2021/07/09 17:50:43;;;;;;;15.73;13.40;;;23.10;70.10;;;;;;10416627;28;20042;-46
2021/07/09 17:55:44;;;;;;;14.35;12.48;;;23.10;69.90;;;;;;10415975;28;20055;-45
2021/07/09 18:00:45;;;;;;;17.38;12.27;;;23.10;69.40;;;;;;10417006;28;20029;-47
2021/07/09 18:05:46;;;;;;;15.85;12.10;;;23.10;69.80;;;;;;10416077;28;20057;-45
2021/07/09 18:10:47;;;;;;;15.20;12.60;;;23.10;69.30;;;;;;10415958;28;20087;-47
2021/07/09 18:15:48;;;;;;;14.98;11.75;;;23.10;69.20;;;;;;10417066;28;20478;-48
2021/07/09 18:20:49;;;;;;;12.65;11.45;;;23.10;69.40;;;;;;10422754;28;20116;-50
2021/07/09 18:25:53;;;;;;;13.05;11.02;;;23.10;69.60;;;;;;10416701;28;20033;-46
2021/07/09 18:30:54;;;;;;;12.50;10.88;;;23.10;69.60;;;;;;10416353;28;20065;-47
2021/07/09 18:35:55;;;;;;;13.65;12.35;;;23.10;69.50;;;;;;10416298;28;20469;-47
2021/07/09 18:40:56;;;;;;;11.73;10.52;;;23.10;69.00;;;;;;10415750;28;20038;-46
2021/07/09 18:45:56;;;;;;;14.93;11.32;;;23.10;69.20;;;;;;10393966;28;20463;-45
2021/07/09 18:50:57;;;;;;;10.98;9.82;;;23.10;69.30;;;;;;10415999;28;20033;-48
2021/07/09 18:55:58;;;;;;;15.18;10.60;;;23.10;69.40;;;;;;10393467;28;20366;-44
2021/07/09 19:01:00;;;;;;;12.02;10.10;;;23.10;69.20;;;;;;10397300;28;20038;-48
2021/07/09 19:06:05;;;;;;;12.75;9.75;;;23.10;69.10;;;;;;10381862;28;20032;-48
2021/07/09 19:11:07;;;;;;;11.93;9.80;;;23.10;69.10;;;;;;10394300;28;20026;-46
2021/07/09 19:16:08;;;;;;;11.05;9.90;;;23.10;69.60;;;;;;10399048;28;20052;-49
2021/07/09 19:21:09;;;;;;;12.35;9.70;;;23.10;69.10;;;;;;10396607;28;20429;-46
2021/07/09 19:26:10;;;;;;;10.77;9.68;;;23.10;69.20;;;;;;10405675;28;20029;-48
2021/07/09 19:31:10;;;;;;;9.98;8.90;;;23.10;69.10;;;;;;10404648;28;20052;-47
2021/07/09 19:36:11;;;;;;;13.50;9.07;;;23.10;69.10;;;;;;10409297;28;20029;-46
2021/07/09 19:41:12;;;;;;;11.02;9.25;;;23.10;69.20;;;;;;10412334;28;20053;-45
2021/07/09 19:46:13;;;;;;;10.20;9.10;;;23.10;69.00;;;;;;10413620;28;20037;-47
2021/07/09 19:51:13;;;;;;;11.43;9.43;;;23.10;69.00;;;;;;10413976;28;20159;-49
2021/07/09 19:56:14;;;;;;;11.60;10.02;;;23.10;68.90;;;;;;10411673;28;20104;-47
2021/07/09 20:01:16;;;;;;;10.02;9.13;;;23.10;68.90;;;;;;10415538;28;20021;-45
2021/07/09 20:06:17;;;;;;;10.98;9.80;;;23.10;68.90;;;;;;10419934;28;20030;-45
2021/07/09 20:11:18;;;;;;;11.45;10.00;;;23.10;69.00;;;;;;10420825;28;20014;-46
2021/07/09 20:16:19;;;;;;;11.02;9.88;;;23.10;69.00;;;;;;10420795;28;20025;-45
2021/07/09 20:21:20;;;;;;;9.65;8.57;;;23.00;68.90;;;;;;10422496;28;20397;-47
2021/07/09 20:26:21;;;;;;;11.90;9.80;;;23.00;68.80;;;;;;10419443;28;20121;-45
2021/07/09 20:31:23;;;;;;;11.35;9.73;;;23.00;68.80;;;;;;10419759;28;20492;-48
2021/07/09 20:36:24;;;;;;;10.23;8.95;;;23.00;68.90;;;;;;10421001;28;20032;-51
2021/07/09 20:41:25;;;;;;;10.40;9.15;;;23.00;68.90;;;;;;10420780;28;20076;-45
2021/07/09 20:46:26;;;;;;;10.32;9.40;;;23.00;68.90;;;;;;10419301;28;20025;-49
2021/07/09 20:51:27;;;;;;;12.77;8.95;;;23.00;68.90;;;;;;10420578;28;20412;-45
2021/07/09 20:56:28;;;;;;;10.52;9.52;;;23.00;68.80;;;;;;10419447;28;20355;-51
2021/07/09 21:01:28;;;;;;;10.75;9.65;;;23.00;69.00;;;;;;10420337;28;20033;-46
2021/07/09 21:06:29;;;;;;;9.77;8.82;;;23.00;69.00;;;;;;10420012;28;20017;-49
2021/07/09 21:11:31;;;;;;;10.38;9.38;;;23.00;69.00;;;;;;10417854;28;20478;-47
2021/07/09 21:16:32;;;;;;;10.40;9.40;;;23.00;69.20;;;;;;10419536;28;20033;-46
2021/07/09 21:21:35;;;;;;;9.68;8.55;;;22.90;69.10;;;;;;10426986;28;20014;-50
2021/07/09 21:26:35;;;;;;;9.40;8.00;;;23.00;69.30;;;;;;10407695;28;20039;-50
2021/07/09 21:31:37;;;;;;;10.43;9.40;;;23.00;69.20;;;;;;10418969;28;20105;-46
2021/07/09 21:36:38;;;;;;;11.68;10.25;;;23.00;69.30;;;;;;10418553;28;20482;-44
2021/07/09 21:41:42;;;;;;;9.18;8.30;;;23.00;69.30;;;;;;10418311;28;20063;-48
2021/07/09 21:46:43;;;;;;;9.07;8.18;;;22.90;69.10;;;;;;10412030;28;20363;-45
2021/07/09 21:51:43;;;;;;;9.00;8.07;;;22.90;69.20;;;;;;10418580;28;20104;-45
2021/07/09 21:56:44;;;;;;;10.18;8.52;;;22.90;69.10;;;;;;10416760;28;20034;-46
2021/07/09 22:01:45;;;;;;;10.23;8.90;;;22.90;69.20;;;;;;10417540;28;20030;-45
2021/07/09 22:06:46;;;;;;;8.65;7.85;;;22.90;69.10;;;;;;10417535;28;20029;-47
2021/07/09 22:11:47;;;;;;;9.98;8.85;;;22.90;69.00;;;;;;10417382;28;20065;-45
2021/07/09 22:16:48;;;;;;;8.90;7.97;;;22.90;69.00;;;;;;10417022;28;20037;-52
2021/07/09 22:21:49;;;;;;;10.15;9.15;;;22.90;69.00;;;;;;10424830;28;20033;-46
2021/07/09 22:26:49;;;;;;;9.77;8.77;;;22.90;69.00;;;;;;10415899;28;20038;-47
2021/07/09 22:31:50;;;;;;;9.45;8.50;;;22.80;68.80;;;;;;10416802;28;20370;-46
2021/07/09 22:36:51;;;;;;;9.65;8.60;;;22.90;68.70;;;;;;10416425;28;20034;-49
2021/07/09 22:41:52;;;;;;;10.43;8.93;;;22.80;68.70;;;;;;10416200;28;20120;-47
2021/07/09 22:46:52;;;;;;;10.35;9.25;;;22.90;68.90;;;;;;10415899;28;20040;-50
2021/07/09 22:51:53;;;;;;;10.10;9.15;;;22.90;68.70;;;;;;10411924;28;20062;-47
2021/07/09 22:56:54;;;;;;;10.32;9.32;;;22.80;68.50;;;;;;10415506;28;20057;-46
2021/07/09 23:01:54;;;;;;;9.77;8.80;;;22.90;68.50;;;;;;10415455;28;20041;-46
2021/07/09 23:06:56;;;;;;;10.07;9.07;;;22.80;68.40;;;;;;10415119;28;20826;-47
2021/07/09 23:11:56;;;;;;;10.65;9.60;;;22.80;68.50;;;;;;10415187;28;20030;-45
2021/07/09 23:16:57;;;;;;;8.88;8.02;;;22.80;68.40;;;;;;10415218;28;20385;-45
2021/07/09 23:21:59;;;;;;;11.20;9.30;;;22.80;68.30;;;;;;10422817;28;20104;-45
2021/07/09 23:26:59;;;;;;;9.48;8.57;;;22.80;68.20;;;;;;10414914;28;20456;-47
2021/07/09 23:32:00;;;;;;;9.93;8.20;;;22.80;68.10;;;;;;10407060;28;20120;-46
2021/07/09 23:37:01;;;;;;;9.23;8.38;;;22.80;68.20;;;;;;10399617;28;20037;-50
2021/07/09 23:42:02;;;;;;;9.35;8.48;;;22.70;68.10;;;;;;10414111;28;20120;-49
2021/07/09 23:47:03;;;;;;;9.75;8.82;;;22.80;68.10;;;;;;10414169;28;20121;-49
2021/07/09 23:52:04;;;;;;;9.77;8.63;;;22.80;68.10;;;;;;10414229;28;20028;-46
2021/07/09 23:57:06;;;;;;;10.25;8.80;;;22.80;68.10;;;;;;10413958;28;20030;-46
